sensor_id;sensor_type;location;lat;lon;timestamp;pressure;altitude;pressure_sealevel;temperature;humidity
21520;BME280;10921;53.614;9.882;2023-05-09T00:01:18;101836.38;;;14.80;42.67
21520;BME280;10921;53.614;9.882;2023-05-09T00:03:45;101837.22;;;14.80;42.35
21520;BME280;10921;53.614;9.882;2023-05-09T00:06:11;101838.50;;;14.76;42.93
21520;BME280;10921;53.614;9.882;2023-05-09T00:08:38;101835.25;;;14.72;43.55
21520;BME280;10921;53.614;9.882;2023-05-09T00:11:06;101835.38;;;14.71;42.91
21520;BME280;10921;53.614;9.882;2023-05-09T00:13:32;101836.81;;;14.65;43.17
21520;BME280;10921;53.614;9.882;2023-05-09T00:16:00;101842.34;;;14.64;42.90
21520;BME280;10921;53.614;9.882;2023-05-09T00:18:26;101785.09;;;14.34;43.23
21520;BME280;10921;53.614;9.882;2023-05-09T00:20:53;101826.50;;;14.61;43.78
21520;BME280;10921;53.614;9.882;2023-05-09T00:23:20;101810.56;;;14.50;44.04
21520;BME280;10921;53.614;9.882;2023-05-09T00:25:46;101815.34;;;14.56;43.56
21520;BME280;10921;53.614;9.882;2023-05-09T00:28:13;101812.94;;;14.53;43.43
21520;BME280;10921;53.614;9.882;2023-05-09T00:30:39;101816.91;;;14.49;43.86
21520;BME280;10921;53.614;9.882;2023-05-09T00:33:06;101816.22;;;14.47;43.57
21520;BME280;10921;53.614;9.882;2023-05-09T00:35:33;101773.22;;;14.27;43.23
21520;BME280;10921;53.614;9.882;2023-05-09T00:38:00;101787.06;;;14.23;43.69
21520;BME280;10921;53.614;9.882;2023-05-09T00:40:26;101809.13;;;14.36;43.41
21520;BME280;10921;53.614;9.882;2023-05-09T00:42:53;101806.44;;;14.36;43.94
21520;BME280;10921;53.614;9.882;2023-05-09T00:45:23;101797.69;;;14.34;43.61
21520;BME280;10921;53.614;9.882;2023-05-09T00:47:50;101790.47;;;14.25;43.76
21520;BME280;10921;53.614;9.882;2023-05-09T00:50:16;101787.94;;;14.33;44.11
21520;BME280;10921;53.614;9.882;2023-05-09T00:52:43;101736.78;;;14.05;44.56
21520;BME280;10921;53.614;9.882;2023-05-09T00:55:10;101768.72;;;14.18;44.01
21520;BME280;10921;53.614;9.882;2023-05-09T00:57:37;101787.47;;;14.37;43.98
21520;BME280;10921;53.614;9.882;2023-05-09T01:00:04;101778.03;;;14.33;44.31
21520;BME280;10921;53.614;9.882;2023-05-09T01:02:31;101781.00;;;14.40;43.83
21520;BME280;10921;53.614;9.882;2023-05-09T01:04:58;101778.03;;;14.43;44.37
21520;BME280;10921;53.614;9.882;2023-05-09T01:10:30;101747.81;;;14.51;44.09
21520;BME280;10921;53.614;9.882;2023-05-09T01:16:06;101749.06;;;14.47;43.91
21520;BME280;10921;53.614;9.882;2023-05-09T01:18:54;101732.69;;;14.40;44.20
21520;BME280;10921;53.614;9.882;2023-05-09T01:21:27;101734.22;;;14.33;44.05
21520;BME280;10921;53.614;9.882;2023-05-09T01:29:26;101723.94;;;14.19;44.56
21520;BME280;10921;53.614;9.882;2023-05-09T01:31:57;101719.28;;;14.11;44.89
21520;BME280;10921;53.614;9.882;2023-05-09T01:34:27;101732.97;;;14.08;44.77
21520;BME280;10921;53.614;9.882;2023-05-09T01:36:58;101714.34;;;13.97;45.22
21520;BME280;10921;53.614;9.882;2023-05-09T01:39:26;101725.09;;;13.97;45.43
21520;BME280;10921;53.614;9.882;2023-05-09T01:41:54;101706.19;;;13.89;45.17
21520;BME280;10921;53.614;9.882;2023-05-09T01:44:22;101692.47;;;13.63;45.56
21520;BME280;10921;53.614;9.882;2023-05-09T01:46:51;101708.56;;;13.72;45.82
21520;BME280;10921;53.614;9.882;2023-05-09T01:49:19;101727.34;;;13.72;45.73
21520;BME280;10921;53.614;9.882;2023-05-09T01:51:47;101719.16;;;13.64;46.06
21520;BME280;10921;53.614;9.882;2023-05-09T01:54:14;101699.66;;;13.53;46.44
21520;BME280;10921;53.614;9.882;2023-05-09T01:56:42;101716.44;;;13.45;46.52
21520;BME280;10921;53.614;9.882;2023-05-09T01:59:11;101731.00;;;13.52;46.70
21520;BME280;10921;53.614;9.882;2023-05-09T02:01:42;101740.28;;;13.48;46.99
21520;BME280;10921;53.614;9.882;2023-05-09T02:04:09;101736.91;;;13.46;46.99
21520;BME280;10921;53.614;9.882;2023-05-09T02:06:36;101738.91;;;13.44;46.97
21520;BME280;10921;53.614;9.882;2023-05-09T02:09:04;101734.66;;;13.42;47.07
21520;BME280;10921;53.614;9.882;2023-05-09T02:11:30;101704.69;;;13.17;47.05
21520;BME280;10921;53.614;9.882;2023-05-09T02:13:57;101714.84;;;13.23;47.46
21520;BME280;10921;53.614;9.882;2023-05-09T02:16:24;101728.72;;;13.28;47.29
21520;BME280;10921;53.614;9.882;2023-05-09T02:18:52;101661.84;;;12.87;47.82
21520;BME280;10921;53.614;9.882;2023-05-09T02:21:21;101729.25;;;13.22;47.66
21520;BME280;10921;53.614;9.882;2023-05-09T02:23:48;101703.91;;;13.06;47.70
21520;BME280;10921;53.614;9.882;2023-05-09T02:26:14;101659.97;;;12.78;48.23
21520;BME280;10921;53.614;9.882;2023-05-09T02:28:43;101719.72;;;13.09;47.97
21520;BME280;10921;53.614;9.882;2023-05-09T02:31:10;101697.97;;;13.02;48.25
21520;BME280;10921;53.614;9.882;2023-05-09T02:33:43;101700.09;;;12.98;48.78
21520;BME280;10921;53.614;9.882;2023-05-09T02:36:11;101706.00;;;13.02;48.46
21520;BME280;10921;53.614;9.882;2023-05-09T02:38:39;101698.94;;;12.91;49.00
21520;BME280;10921;53.614;9.882;2023-05-09T02:41:06;101659.13;;;12.67;48.93
21520;BME280;10921;53.614;9.882;2023-05-09T02:43:37;101700.75;;;12.91;48.68
21520;BME280;10921;53.614;9.882;2023-05-09T02:46:04;101668.13;;;12.66;48.81
21520;BME280;10921;53.614;9.882;2023-05-09T02:48:30;101694.09;;;12.85;49.07
21520;BME280;10921;53.614;9.882;2023-05-09T02:50:57;101712.00;;;12.85;49.23
21520;BME280;10921;53.614;9.882;2023-05-09T02:53:24;101687.88;;;12.75;49.37
21520;BME280;10921;53.614;9.882;2023-05-09T02:55:51;101668.91;;;12.57;49.17
21520;BME280;10921;53.614;9.882;2023-05-09T02:58:19;101702.00;;;12.77;49.93
21520;BME280;10921;53.614;9.882;2023-05-09T03:00:46;101686.56;;;12.69;49.40
21520;BME280;10921;53.614;9.882;2023-05-09T03:03:13;101689.25;;;12.69;49.71
21520;BME280;10921;53.614;9.882;2023-05-09T03:05:39;101690.66;;;12.64;50.14
21520;BME280;10921;53.614;9.882;2023-05-09T03:08:06;101696.72;;;12.66;50.24
21520;BME280;10921;53.614;9.882;2023-05-09T03:10:33;101682.31;;;12.57;50.03
21520;BME280;10921;53.614;9.882;2023-05-09T03:12:59;101674.53;;;12.54;50.10
21520;BME280;10921;53.614;9.882;2023-05-09T03:15:26;101668.16;;;12.46;50.63
21520;BME280;10921;53.614;9.882;2023-05-09T03:17:53;101668.03;;;12.47;50.67
21520;BME280;10921;53.614;9.882;2023-05-09T03:20:19;101680.31;;;12.50;51.01
21520;BME280;10921;53.614;9.882;2023-05-09T03:22:46;101683.00;;;12.50;51.02
21520;BME280;10921;53.614;9.882;2023-05-09T03:25:13;101681.41;;;12.47;51.01
21520;BME280;10921;53.614;9.882;2023-05-09T03:27:40;101669.88;;;12.47;50.82
21520;BME280;10921;53.614;9.882;2023-05-09T03:30:07;101670.50;;;12.39;51.04
21520;BME280;10921;53.614;9.882;2023-05-09T03:32:33;101672.09;;;12.42;51.26
21520;BME280;10921;53.614;9.882;2023-05-09T03:35:00;101655.72;;;12.35;51.04
21520;BME280;10921;53.614;9.882;2023-05-09T03:37:26;101654.03;;;12.34;51.15
21520;BME280;10921;53.614;9.882;2023-05-09T03:39:53;101667.41;;;12.34;51.26
21520;BME280;10921;53.614;9.882;2023-05-09T03:42:19;101662.56;;;12.28;51.46
21520;BME280;10921;53.614;9.882;2023-05-09T03:44:46;101659.78;;;12.29;51.46
21520;BME280;10921;53.614;9.882;2023-05-09T03:47:13;101663.56;;;12.27;51.73
21520;BME280;10921;53.614;9.882;2023-05-09T03:49:39;101650.97;;;12.18;51.99
21520;BME280;10921;53.614;9.882;2023-05-09T03:52:06;101655.91;;;12.22;52.24
21520;BME280;10921;53.614;9.882;2023-05-09T03:54:33;101653.25;;;12.22;52.02
21520;BME280;10921;53.614;9.882;2023-05-09T03:56:59;101648.31;;;12.18;52.21
21520;BME280;10921;53.614;9.882;2023-05-09T03:59:26;101651.56;;;12.21;52.51
21520;BME280;10921;53.614;9.882;2023-05-09T04:01:55;101651.09;;;12.16;52.46
21520;BME280;10921;53.614;9.882;2023-05-09T04:04:22;101653.41;;;12.21;52.40
21520;BME280;10921;53.614;9.882;2023-05-09T04:06:48;101623.31;;;12.08;52.55
21520;BME280;10921;53.614;9.882;2023-05-09T04:09:15;101612.91;;;12.05;52.71
21520;BME280;10921;53.614;9.882;2023-05-09T04:11:41;101636.50;;;12.20;52.75
21520;BME280;10921;53.614;9.882;2023-05-09T04:14:08;101649.88;;;12.20;52.82
21520;BME280;10921;53.614;9.882;2023-05-09T04:16:34;101595.38;;;11.91;52.90
21520;BME280;10921;53.614;9.882;2023-05-09T04:19:01;101640.28;;;12.18;53.03
21520;BME280;10921;53.614;9.882;2023-05-09T04:21:27;101644.91;;;12.16;53.14
21520;BME280;10921;53.614;9.882;2023-05-09T04:23:54;101617.53;;;12.03;52.87
21520;BME280;10921;53.614;9.882;2023-05-09T04:26:21;101650.72;;;12.21;53.15
21520;BME280;10921;53.614;9.882;2023-05-09T04:28:48;101630.44;;;12.18;53.16
21520;BME280;10921;53.614;9.882;2023-05-09T04:31:14;101633.69;;;12.22;53.63
21520;BME280;10921;53.614;9.882;2023-05-09T04:33:41;101636.63;;;12.19;53.59
21520;BME280;10921;53.614;9.882;2023-05-09T04:36:07;101633.09;;;12.18;54.18
21520;BME280;10921;53.614;9.882;2023-05-09T04:38:34;101618.53;;;12.11;53.71
21520;BME280;10921;53.614;9.882;2023-05-09T04:41:01;101637.19;;;12.22;53.63
21520;BME280;10921;53.614;9.882;2023-05-09T04:43:27;101634.50;;;12.22;54.18
21520;BME280;10921;53.614;9.882;2023-05-09T04:45:54;101629.03;;;12.24;53.64
21520;BME280;10921;53.614;9.882;2023-05-09T04:48:21;101590.06;;;12.01;53.87
21520;BME280;10921;53.614;9.882;2023-05-09T04:50:48;101622.81;;;12.23;54.36
21520;BME280;10921;53.614;9.882;2023-05-09T04:53:14;101629.63;;;12.27;53.97
21520;BME280;10921;53.614;9.882;2023-05-09T04:55:41;101627.66;;;12.29;53.93
21520;BME280;10921;53.614;9.882;2023-05-09T04:58:08;101625.69;;;12.31;53.98
21520;BME280;10921;53.614;9.882;2023-05-09T05:00:35;101599.09;;;12.09;54.58
21520;BME280;10921;53.614;9.882;2023-05-09T05:03:01;101604.81;;;12.25;54.57
21520;BME280;10921;53.614;9.882;2023-05-09T05:05:28;101622.03;;;12.32;54.30
21520;BME280;10921;53.614;9.882;2023-05-09T05:07:55;101616.09;;;12.29;54.11
21520;BME280;10921;53.614;9.882;2023-05-09T05:10:22;101619.78;;;12.38;54.29
21520;BME280;10921;53.614;9.882;2023-05-09T05:12:48;101626.84;;;12.39;54.40
21520;BME280;10921;53.614;9.882;2023-05-09T05:15:15;101621.34;;;12.40;54.24
21520;BME280;10921;53.614;9.882;2023-05-09T05:17:42;101589.47;;;12.27;54.26
21520;BME280;10921;53.614;9.882;2023-05-09T05:20:09;101592.72;;;12.31;54.08
21520;BME280;10921;53.614;9.882;2023-05-09T05:22:38;101601.13;;;12.47;53.99
21520;BME280;10921;53.614;9.882;2023-05-09T05:25:05;101608.31;;;12.56;53.88
21520;BME280;10921;53.614;9.882;2023-05-09T05:27:32;101592.81;;;12.50;54.39
21520;BME280;10921;53.614;9.882;2023-05-09T05:29:59;101611.44;;;12.61;54.33
21520;BME280;10921;53.614;9.882;2023-05-09T05:32:25;101611.72;;;12.68;54.76
21520;BME280;10921;53.614;9.882;2023-05-09T05:34:52;101600.63;;;12.73;54.42
21520;BME280;10921;53.614;9.882;2023-05-09T05:37:22;101583.97;;;12.69;53.84
21520;BME280;10921;53.614;9.882;2023-05-09T05:39:48;101587.94;;;12.84;53.86
21520;BME280;10921;53.614;9.882;2023-05-09T05:42:18;101579.94;;;12.94;53.78
21520;BME280;10921;53.614;9.882;2023-05-09T05:44:45;101573.50;;;13.16;53.06
21520;BME280;10921;53.614;9.882;2023-05-09T05:47:11;101590.56;;;13.34;52.69
21520;BME280;10921;53.614;9.882;2023-05-09T05:49:38;101581.53;;;13.45;52.79
21520;BME280;10921;53.614;9.882;2023-05-09T05:52:05;101560.69;;;13.38;52.04
21520;BME280;10921;53.614;9.882;2023-05-09T05:54:31;101585.34;;;13.61;51.81
21520;BME280;10921;53.614;9.882;2023-05-09T05:56:58;101592.09;;;13.65;52.06
21520;BME280;10921;53.614;9.882;2023-05-09T05:59:24;101559.66;;;13.49;51.74
21520;BME280;10921;53.614;9.882;2023-05-09T06:01:51;101556.16;;;13.58;51.50
21520;BME280;10921;53.614;9.882;2023-05-09T06:04:17;101573.59;;;13.82;51.47
21520;BME280;10921;53.614;9.882;2023-05-09T06:06:44;101571.84;;;13.90;51.03
21520;BME280;10921;53.614;9.882;2023-05-09T06:09:11;101560.97;;;13.92;51.30
21520;BME280;10921;53.614;9.882;2023-05-09T06:11:37;101535.31;;;13.89;50.91
21520;BME280;10921;53.614;9.882;2023-05-09T06:14:04;101516.97;;;13.85;51.37
21520;BME280;10921;53.614;9.882;2023-05-09T06:16:31;101574.84;;;14.24;51.46
21520;BME280;10921;53.614;9.882;2023-05-09T06:18:58;101567.50;;;14.26;50.77
21520;BME280;10921;53.614;9.882;2023-05-09T06:21:24;101553.53;;;14.23;51.51
21520;BME280;10921;53.614;9.882;2023-05-09T06:23:51;101568.06;;;14.30;51.04
21520;BME280;10921;53.614;9.882;2023-05-09T06:26:35;101541.44;;;14.36;51.25
21520;BME280;10921;53.614;9.882;2023-05-09T06:29:02;101546.38;;;14.51;50.74
21520;BME280;10921;53.614;9.882;2023-05-09T06:31:29;101506.88;;;14.33;50.77
21520;BME280;10921;53.614;9.882;2023-05-09T06:34:15;101539.50;;;14.66;50.54
21520;BME280;10921;53.614;9.882;2023-05-09T06:36:50;101535.34;;;14.71;50.90
21520;BME280;10921;53.614;9.882;2023-05-09T06:39:16;101486.75;;;14.47;50.89
21520;BME280;10921;53.614;9.882;2023-05-09T06:41:43;101520.78;;;14.74;51.34
21520;BME280;10921;53.614;9.882;2023-05-09T06:44:09;101505.81;;;14.71;51.27
21520;BME280;10921;53.614;9.882;2023-05-09T06:46:36;101490.69;;;14.70;50.54
21520;BME280;10921;53.614;9.882;2023-05-09T06:49:02;101506.97;;;14.87;50.17
21520;BME280;10921;53.614;9.882;2023-05-09T06:51:29;101516.31;;;15.00;50.30
21520;BME280;10921;53.614;9.882;2023-05-09T06:53:56;101497.81;;;14.97;50.47
21520;BME280;10921;53.614;9.882;2023-05-09T06:56:23;101515.56;;;15.08;50.72
21520;BME280;10921;53.614;9.882;2023-05-09T06:58:50;101518.47;;;15.14;50.09
21520;BME280;10921;53.614;9.882;2023-05-09T07:01:17;101510.41;;;15.14;50.16
21520;BME280;10921;53.614;9.882;2023-05-09T07:03:43;101519.94;;;15.27;51.28
21520;BME280;10921;53.614;9.882;2023-05-09T07:06:11;101488.44;;;15.19;49.96
21520;BME280;10921;53.614;9.882;2023-05-09T07:08:38;101505.59;;;15.44;50.30
21520;BME280;10921;53.614;9.882;2023-05-09T07:11:04;101498.34;;;15.62;50.24
21520;BME280;10921;53.614;9.882;2023-05-09T07:13:31;101512.31;;;15.92;49.98
21520;BME280;10921;53.614;9.882;2023-05-09T07:15:57;101492.09;;;16.13;49.21
21520;BME280;10921;53.614;9.882;2023-05-09T07:18:24;101471.25;;;16.24;48.86
21520;BME280;10921;53.614;9.882;2023-05-09T07:20:50;101490.91;;;16.66;47.61
21520;BME280;10921;53.614;9.882;2023-05-09T07:23:16;101501.56;;;16.84;46.62
21520;BME280;10921;53.614;9.882;2023-05-09T07:25:43;101496.72;;;16.96;46.69
21520;BME280;10921;53.614;9.882;2023-05-09T07:28:10;101492.66;;;17.08;46.11
21520;BME280;10921;53.614;9.882;2023-05-09T07:30:38;101485.56;;;17.15;46.55
21520;BME280;10921;53.614;9.882;2023-05-09T07:33:04;101483.56;;;17.25;46.18
21520;BME280;10921;53.614;9.882;2023-05-09T07:35:32;101473.59;;;17.34;47.20
21520;BME280;10921;53.614;9.882;2023-05-09T07:37:58;101464.84;;;17.40;46.83
21520;BME280;10921;53.614;9.882;2023-05-09T07:40:25;101455.38;;;17.44;45.53
21520;BME280;10921;53.614;9.882;2023-05-09T07:42:52;101459.88;;;17.59;46.80
21520;BME280;10921;53.614;9.882;2023-05-09T07:45:20;101453.34;;;17.70;46.93
21520;BME280;10921;53.614;9.882;2023-05-09T07:47:49;101445.03;;;17.80;45.45
21520;BME280;10921;53.614;9.882;2023-05-09T07:50:16;101440.09;;;17.91;46.14
21520;BME280;10921;53.614;9.882;2023-05-09T07:52:43;101440.25;;;17.98;44.80
21520;BME280;10921;53.614;9.882;2023-05-09T07:55:09;101433.91;;;18.14;45.11
21520;BME280;10921;53.614;9.882;2023-05-09T07:57:37;101438.50;;;18.36;45.62
21520;BME280;10921;53.614;9.882;2023-05-09T08:00:06;101427.44;;;18.54;45.18
21520;BME280;10921;53.614;9.882;2023-05-09T08:02:33;101429.50;;;18.75;44.59
21520;BME280;10921;53.614;9.882;2023-05-09T08:05:00;101419.22;;;18.93;44.40
21520;BME280;10921;53.614;9.882;2023-05-09T08:07:26;101427.25;;;19.01;43.88
21520;BME280;10921;53.614;9.882;2023-05-09T08:09:53;101412.84;;;19.09;43.46
21520;BME280;10921;53.614;9.882;2023-05-09T08:12:19;101420.88;;;19.17;43.23
21520;BME280;10921;53.614;9.882;2023-05-09T08:14:46;101381.09;;;19.03;42.96
21520;BME280;10921;53.614;9.882;2023-05-09T08:17:12;101408.56;;;19.29;42.22
21520;BME280;10921;53.614;9.882;2023-05-09T08:19:39;101405.97;;;19.36;43.59
21520;BME280;10921;53.614;9.882;2023-05-09T08:22:05;101370.84;;;19.13;43.27
21520;BME280;10921;53.614;9.882;2023-05-09T08:24:32;101370.19;;;19.25;43.44
21520;BME280;10921;53.614;9.882;2023-05-09T08:26:58;101413.44;;;19.48;43.04
21520;BME280;10921;53.614;9.882;2023-05-09T08:29:25;101391.44;;;19.51;43.58
21520;BME280;10921;53.614;9.882;2023-05-09T08:31:52;101396.88;;;19.66;43.35
21520;BME280;10921;53.614;9.882;2023-05-09T08:34:19;101401.97;;;19.76;42.84
21520;BME280;10921;53.614;9.882;2023-05-09T08:36:46;101389.63;;;19.88;43.26
21520;BME280;10921;53.614;9.882;2023-05-09T08:39:12;101375.16;;;19.95;41.70
21520;BME280;10921;53.614;9.882;2023-05-09T08:41:39;101410.97;;;20.27;42.62
21520;BME280;10921;53.614;9.882;2023-05-09T08:44:07;101397.22;;;20.28;41.51
21520;BME280;10921;53.614;9.882;2023-05-09T08:46:36;101397.34;;;20.56;41.45
21520;BME280;10921;53.614;9.882;2023-05-09T08:49:04;101384.88;;;20.62;40.68
21520;BME280;10921;53.614;9.882;2023-05-09T08:51:34;101388.94;;;20.73;40.68
21520;BME280;10921;53.614;9.882;2023-05-09T08:54:02;101388.13;;;20.79;40.08
21520;BME280;10921;53.614;9.882;2023-05-09T08:56:29;101383.78;;;20.78;40.18
21520;BME280;10921;53.614;9.882;2023-05-09T08:58:57;101387.81;;;20.88;40.24
21520;BME280;10921;53.614;9.882;2023-05-09T09:01:24;101376.13;;;20.88;39.57
21520;BME280;10921;53.614;9.882;2023-05-09T09:03:52;101377.66;;;20.97;40.13
21520;BME280;10921;53.614;9.882;2023-05-09T09:06:20;101370.16;;;20.99;41.18
21520;BME280;10921;53.614;9.882;2023-05-09T09:08:47;101369.59;;;21.03;40.02
21520;BME280;10921;53.614;9.882;2023-05-09T09:11:15;101347.81;;;20.97;39.41
21520;BME280;10921;53.614;9.882;2023-05-09T09:13:42;101363.31;;;21.03;39.67
21520;BME280;10921;53.614;9.882;2023-05-09T09:16:13;101362.72;;;21.08;39.82
21520;BME280;10921;53.614;9.882;2023-05-09T09:18:43;101319.56;;;20.85;39.35
21520;BME280;10921;53.614;9.882;2023-05-09T09:21:11;101355.19;;;21.03;39.30
21520;BME280;10921;53.614;9.882;2023-05-09T09:23:42;101360.44;;;21.11;39.90
21520;BME280;10921;53.614;9.882;2023-05-09T09:26:09;101320.94;;;21.02;40.63
21520;BME280;10921;53.614;9.882;2023-05-09T09:28:35;101337.47;;;21.41;38.68
21520;BME280;10921;53.614;9.882;2023-05-09T09:31:20;101355.47;;;21.84;39.32
21520;BME280;10921;53.614;9.882;2023-05-09T09:33:48;101347.84;;;22.14;38.33
21520;BME280;10921;53.614;9.882;2023-05-09T09:36:14;101325.72;;;22.36;38.04
21520;BME280;10921;53.614;9.882;2023-05-09T09:38:41;101343.97;;;22.75;37.07
21520;BME280;10921;53.614;9.882;2023-05-09T09:41:11;101336.13;;;23.38;37.24
21520;BME280;10921;53.614;9.882;2023-05-09T09:43:44;101313.06;;;23.54;35.53
21520;BME280;10921;53.614;9.882;2023-05-09T09:46:12;101315.50;;;23.82;34.17
21520;BME280;10921;53.614;9.882;2023-05-09T09:48:45;101326.66;;;24.12;34.01
21520;BME280;10921;53.614;9.882;2023-05-09T09:51:16;101314.31;;;24.41;33.11
21520;BME280;10921;53.614;9.882;2023-05-09T09:53:44;101322.94;;;24.63;31.96
21520;BME280;10921;53.614;9.882;2023-05-09T09:56:10;101290.78;;;24.71;32.46
21520;BME280;10921;53.614;9.882;2023-05-09T09:58:37;101304.72;;;25.06;31.79
21520;BME280;10921;53.614;9.882;2023-05-09T10:01:09;101306.41;;;25.26;31.33
21520;BME280;10921;53.614;9.882;2023-05-09T10:03:41;101301.78;;;25.44;31.25
21520;BME280;10921;53.614;9.882;2023-05-09T10:06:13;101319.94;;;25.75;31.46
21520;BME280;10921;53.614;9.882;2023-05-09T10:08:40;101306.06;;;25.88;31.42
21520;BME280;10921;53.614;9.882;2023-05-09T10:11:08;101301.94;;;25.98;29.95
21520;BME280;10921;53.614;9.882;2023-05-09T10:13:36;101289.16;;;26.10;29.60
21520;BME280;10921;53.614;9.882;2023-05-09T10:16:04;101284.69;;;26.27;29.23
21520;BME280;10921;53.614;9.882;2023-05-09T10:18:31;101275.00;;;26.43;29.24
21520;BME280;10921;53.614;9.882;2023-05-09T10:20:59;101236.75;;;26.24;29.45
21520;BME280;10921;53.614;9.882;2023-05-09T10:23:31;101265.38;;;26.63;29.78
21520;BME280;10921;53.614;9.882;2023-05-09T10:28:34;101257.88;;;26.82;28.52
21520;BME280;10921;53.614;9.882;2023-05-09T10:31:26;101261.13;;;27.03;29.00
21520;BME280;10921;53.614;9.882;2023-05-09T10:33:54;101258.81;;;27.23;29.57
21520;BME280;10921;53.614;9.882;2023-05-09T10:36:21;101267.41;;;27.15;28.08
21520;BME280;10921;53.614;9.882;2023-05-09T10:38:54;101252.22;;;27.36;27.46
21520;BME280;10921;53.614;9.882;2023-05-09T10:41:21;101259.19;;;27.55;27.53
21520;BME280;10921;53.614;9.882;2023-05-09T10:43:49;101255.03;;;27.52;27.36
21520;BME280;10921;53.614;9.882;2023-05-09T10:46:15;101228.69;;;27.51;27.08
21520;BME280;10921;53.614;9.882;2023-05-09T10:48:43;101214.97;;;27.51;27.24
21520;BME280;10921;53.614;9.882;2023-05-09T10:51:10;101223.47;;;27.50;27.15
21520;BME280;10921;53.614;9.882;2023-05-09T10:53:44;101212.38;;;27.56;26.34
21520;BME280;10921;53.614;9.882;2023-05-09T10:56:31;101204.25;;;27.61;27.16
21520;BME280;10921;53.614;9.882;2023-05-09T10:58:58;101211.16;;;27.64;27.63
21520;BME280;10921;53.614;9.882;2023-05-09T11:01:28;101202.88;;;27.76;27.41
21520;BME280;10921;53.614;9.882;2023-05-09T11:03:57;101180.31;;;27.57;26.16
21520;BME280;10921;53.614;9.882;2023-05-09T11:06:42;101200.56;;;27.84;27.25
21520;BME280;10921;53.614;9.882;2023-05-09T11:11:51;101187.09;;;27.83;26.96
21520;BME280;10921;53.614;9.882;2023-05-09T11:14:32;101193.38;;;27.95;26.95
21520;BME280;10921;53.614;9.882;2023-05-09T11:17:15;101175.00;;;27.95;26.49
21520;BME280;10921;53.614;9.882;2023-05-09T11:25:03;101161.84;;;28.14;26.01
21520;BME280;10921;53.614;9.882;2023-05-09T11:27:43;101167.00;;;28.27;25.90
21520;BME280;10921;53.614;9.882;2023-05-09T11:30:15;101170.31;;;28.13;25.12
21520;BME280;10921;53.614;9.882;2023-05-09T11:35:17;101143.56;;;28.03;25.58
21520;BME280;10921;53.614;9.882;2023-05-09T11:37:45;101153.94;;;28.01;25.43
21520;BME280;10921;53.614;9.882;2023-05-09T11:40:15;101141.16;;;27.90;27.06
21520;BME280;10921;53.614;9.882;2023-05-09T11:42:44;101142.81;;;27.91;25.21
21520;BME280;10921;53.614;9.882;2023-05-09T11:45:11;101140.06;;;27.91;24.94
21520;BME280;10921;53.614;9.882;2023-05-09T11:47:39;101140.06;;;27.91;25.00
21520;BME280;10921;53.614;9.882;2023-05-09T11:50:09;101121.13;;;27.89;25.44
21520;BME280;10921;53.614;9.882;2023-05-09T11:52:36;101130.25;;;28.28;24.33
21520;BME280;10921;53.614;9.882;2023-05-09T11:55:07;101112.31;;;28.04;24.60
21520;BME280;10921;53.614;9.882;2023-05-09T11:57:46;101091.22;;;27.88;25.64
21520;BME280;10921;53.614;9.882;2023-05-09T12:00:18;101106.56;;;28.06;24.67
21520;BME280;10921;53.614;9.882;2023-05-09T12:02:45;101106.31;;;28.07;24.48
21520;BME280;10921;53.614;9.882;2023-05-09T12:05:15;101105.91;;;27.98;25.38
21520;BME280;10921;53.614;9.882;2023-05-09T12:07:43;101104.41;;;28.08;25.95
21520;BME280;10921;53.614;9.882;2023-05-09T12:10:12;101111.63;;;28.14;25.13
21520;BME280;10921;53.614;9.882;2023-05-09T12:12:45;101103.84;;;28.22;25.35
21520;BME280;10921;53.614;9.882;2023-05-09T12:15:12;101073.47;;;28.12;25.73
21520;BME280;10921;53.614;9.882;2023-05-09T12:17:43;101094.34;;;28.30;26.20
21520;BME280;10921;53.614;9.882;2023-05-09T12:20:09;101088.38;;;28.77;25.47
21520;BME280;10921;53.614;9.882;2023-05-09T12:22:36;101088.72;;;28.42;25.28
21520;BME280;10921;53.614;9.882;2023-05-09T12:25:05;101093.72;;;28.45;24.78
21520;BME280;10921;53.614;9.882;2023-05-09T12:27:37;101089.88;;;28.46;23.84
21520;BME280;10921;53.614;9.882;2023-05-09T12:30:04;101086.56;;;28.22;24.27
21520;BME280;10921;53.614;9.882;2023-05-09T12:32:36;101075.91;;;28.09;24.03
21520;BME280;10921;53.614;9.882;2023-05-09T12:35:08;101098.34;;;28.22;24.98
21520;BME280;10921;53.614;9.882;2023-05-09T12:37:36;101096.13;;;28.19;25.97
21520;BME280;10921;53.614;9.882;2023-05-09T12:40:09;101101.81;;;28.18;25.78
21520;BME280;10921;53.614;9.882;2023-05-09T12:42:44;101091.09;;;28.16;25.32
21520;BME280;10921;53.614;9.882;2023-05-09T12:45:12;101076.91;;;28.19;25.77
21520;BME280;10921;53.614;9.882;2023-05-09T12:47:39;101081.91;;;28.22;26.34
21520;BME280;10921;53.614;9.882;2023-05-09T12:50:09;101087.88;;;28.19;24.87
21520;BME280;10921;53.614;9.882;2023-05-09T12:52:40;101068.91;;;28.01;25.98
21520;BME280;10921;53.614;9.882;2023-05-09T12:55:24;101071.56;;;28.13;24.63
21520;BME280;10921;53.614;9.882;2023-05-09T12:58:01;101076.28;;;28.17;25.83
21520;BME280;10921;53.614;9.882;2023-05-09T13:00:28;101067.16;;;28.12;24.87
21520;BME280;10921;53.614;9.882;2023-05-09T13:03:27;101072.84;;;28.22;25.89
21520;BME280;10921;53.614;9.882;2023-05-09T13:06:00;101075.56;;;28.22;25.48
21520;BME280;10921;53.614;9.882;2023-05-09T13:08:28;101014.50;;;27.93;25.18
21520;BME280;10921;53.614;9.882;2023-05-09T13:10:55;101014.56;;;27.98;25.91
21520;BME280;10921;53.614;9.882;2023-05-09T13:13:39;101053.50;;;28.33;26.02
21520;BME280;10921;53.614;9.882;2023-05-09T13:16:06;101046.44;;;28.38;26.55
21520;BME280;10921;53.614;9.882;2023-05-09T13:18:36;101026.50;;;28.47;25.15
21520;BME280;10921;53.614;9.882;2023-05-09T13:21:02;101047.97;;;28.50;24.88